KRYN

Ryan Field Airport

Tucson, Arizona, USA
METAR KRYN 150045Z 29010G14KT 10SM FEW075 36/15 A2985
Observed Flight Rules
Aug-15 @ 00:45 UTC (21 minutes ago) Visual Flight Rules
Wind Visibility Clouds
290° at 10 knots
 Gusting to 14 knots
10 miles
  • Few at 7,500' AGL
Temperatures Readings
Current 36°C / 97°F
Dewpoint 15°C / 59°F
Humidity 28%
Altimeter 29.85" Hg
Pressure 1011 hPa
Elevation 737
METAR KRYN 150045Z 29010G14KT 10SM FEW075 36/15 A2985
Observed Flight Rules
Aug-15 @ 00:45 UTC
(21 minutes ago)
VFR
Wind Visibility
290° at 10 knots
 Gusting to 14 knots
10 miles
Clouds
  • Few at 7,500' AGL
Temperature Dewpoint
36°C / 97°F 15°C / 59°F
Humidity Altimeter Pressure
28% 29.85" Hg 1011 hPa